sensor_id;sensor_type;location;lat;lon;timestamp;temperature;humidity
65858;SHT31;53776;47.242;18.674;2022-11-20T00:01:45;2.50;86.15
65858;SHT31;53776;47.242;18.674;2022-11-20T00:04:11;2.48;86.01
65858;SHT31;53776;47.242;18.674;2022-11-20T00:06:37;2.50;86.05
65858;SHT31;53776;47.242;18.674;2022-11-20T00:09:03;2.46;86.05
65858;SHT31;53776;47.242;18.674;2022-11-20T00:11:31;2.51;85.69
65858;SHT31;53776;47.242;18.674;2022-11-20T00:13:59;2.48;86.03
65858;SHT31;53776;47.242;18.674;2022-11-20T00:16:27;2.50;85.89
65858;SHT31;53776;47.242;18.674;2022-11-20T00:18:53;2.40;85.65
65858;SHT31;53776;47.242;18.674;2022-11-20T00:21:21;2.43;86.04
65858;SHT31;53776;47.242;18.674;2022-11-20T00:23:47;2.43;85.82
65858;SHT31;53776;47.242;18.674;2022-11-20T00:26:15;2.48;85.90
65858;SHT31;53776;47.242;18.674;2022-11-20T00:28:42;2.50;85.87
65858;SHT31;53776;47.242;18.674;2022-11-20T00:31:13;2.50;85.84
65858;SHT31;53776;47.242;18.674;2022-11-20T00:33:38;2.53;85.70
65858;SHT31;53776;47.242;18.674;2022-11-20T00:36:09;2.56;85.29
65858;SHT31;53776;47.242;18.674;2022-11-20T00:38:35;2.46;85.10
65858;SHT31;53776;47.242;18.674;2022-11-20T00:41:03;2.50;85.32
65858;SHT31;53776;47.242;18.674;2022-11-20T00:43:28;2.41;85.24
65858;SHT31;53776;47.242;18.674;2022-11-20T00:46:24;2.44;85.43
65858;SHT31;53776;47.242;18.674;2022-11-20T00:48:50;2.48;85.24
65858;SHT31;53776;47.242;18.674;2022-11-20T00:51:18;2.50;85.33
65858;SHT31;53776;47.242;18.674;2022-11-20T00:53:44;2.51;84.99
65858;SHT31;53776;47.242;18.674;2022-11-20T00:56:14;2.48;84.94
65858;SHT31;53776;47.242;18.674;2022-11-20T00:58:41;2.51;84.97
65858;SHT31;53776;47.242;18.674;2022-11-20T01:03:39;2.44;85.50
65858;SHT31;53776;47.242;18.674;2022-11-20T01:06:07;2.48;85.40
65858;SHT31;53776;47.242;18.674;2022-11-20T01:08:34;2.51;85.39
65858;SHT31;53776;47.242;18.674;2022-11-20T01:11:05;2.53;85.45
65858;SHT31;53776;47.242;18.674;2022-11-20T01:13:31;2.50;85.22
65858;SHT31;53776;47.242;18.674;2022-11-20T01:18:33;2.51;85.47
65858;SHT31;53776;47.242;18.674;2022-11-20T01:21:10;2.57;85.45
65858;SHT31;53776;47.242;18.674;2022-11-20T01:23:38;2.57;85.46
65858;SHT31;53776;47.242;18.674;2022-11-20T01:26:06;2.58;85.44
65858;SHT31;53776;47.242;18.674;2022-11-20T01:28:32;2.58;85.41
65858;SHT31;53776;47.242;18.674;2022-11-20T01:30:58;2.61;85.06
65858;SHT31;53776;47.242;18.674;2022-11-20T01:33:24;2.61;85.26
65858;SHT31;53776;47.242;18.674;2022-11-20T01:35:50;2.54;85.34
65858;SHT31;53776;47.242;18.674;2022-11-20T01:38:16;2.51;84.72
65858;SHT31;53776;47.242;18.674;2022-11-20T01:40:41;2.54;84.64
65858;SHT31;53776;47.242;18.674;2022-11-20T01:43:26;2.50;85.11
65858;SHT31;53776;47.242;18.674;2022-11-20T01:51:00;2.48;85.37
65858;SHT31;53776;47.242;18.674;2022-11-20T01:53:32;2.48;85.22
65858;SHT31;53776;47.242;18.674;2022-11-20T01:56:00;2.51;85.09
65858;SHT31;53776;47.242;18.674;2022-11-20T01:58:32;2.47;84.89
65858;SHT31;53776;47.242;18.674;2022-11-20T02:00:59;2.51;84.92
65858;SHT31;53776;47.242;18.674;2022-11-20T02:03:25;2.47;85.01
65858;SHT31;53776;47.242;18.674;2022-11-20T02:05:57;2.54;85.10
65858;SHT31;53776;47.242;18.674;2022-11-20T02:08:24;2.54;84.79
65858;SHT31;53776;47.242;18.674;2022-11-20T02:10:50;2.57;84.34
65858;SHT31;53776;47.242;18.674;2022-11-20T02:13:15;2.53;84.32
65858;SHT31;53776;47.242;18.674;2022-11-20T02:16:01;2.51;84.02
65858;SHT31;53776;47.242;18.674;2022-11-20T02:18:26;2.53;84.29
65858;SHT31;53776;47.242;18.674;2022-11-20T02:21:02;2.54;84.36
65858;SHT31;53776;47.242;18.674;2022-11-20T02:23:35;2.56;84.95
65858;SHT31;53776;47.242;18.674;2022-11-20T02:26:03;2.56;84.80
65858;SHT31;53776;47.242;18.674;2022-11-20T02:28:31;2.56;85.03
65858;SHT31;53776;47.242;18.674;2022-11-20T02:30:56;2.54;85.53
65858;SHT31;53776;47.242;18.674;2022-11-20T02:33:22;2.62;85.36
65858;SHT31;53776;47.242;18.674;2022-11-20T02:35:47;2.65;85.28
65858;SHT31;53776;47.242;18.674;2022-11-20T02:38:13;2.65;85.29
65858;SHT31;53776;47.242;18.674;2022-11-20T02:40:40;2.67;85.16
65858;SHT31;53776;47.242;18.674;2022-11-20T02:43:05;2.65;85.23
65858;SHT31;53776;47.242;18.674;2022-11-20T02:45:30;2.62;85.20
65858;SHT31;53776;47.242;18.674;2022-11-20T02:47:56;2.60;85.37
65858;SHT31;53776;47.242;18.674;2022-11-20T02:50:22;2.62;85.54
65858;SHT31;53776;47.242;18.674;2022-11-20T02:52:47;2.65;85.72
65858;SHT31;53776;47.242;18.674;2022-11-20T02:55:13;2.62;85.92
65858;SHT31;53776;47.242;18.674;2022-11-20T02:57:38;2.61;85.97
65858;SHT31;53776;47.242;18.674;2022-11-20T03:00:04;2.60;86.33
65858;SHT31;53776;47.242;18.674;2022-11-20T03:02:32;2.60;86.47
65858;SHT31;53776;47.242;18.674;2022-11-20T03:04:58;2.67;86.34
65858;SHT31;53776;47.242;18.674;2022-11-20T03:07:23;2.73;86.33
65858;SHT31;53776;47.242;18.674;2022-11-20T03:09:49;2.75;86.05
65858;SHT31;53776;47.242;18.674;2022-11-20T03:12:14;2.77;86.25
65858;SHT31;53776;47.242;18.674;2022-11-20T03:14:40;2.81;86.36
65858;SHT31;53776;47.242;18.674;2022-11-20T03:17:05;2.85;86.04
65858;SHT31;53776;47.242;18.674;2022-11-20T03:19:31;2.87;85.95
65858;SHT31;53776;47.242;18.674;2022-11-20T03:21:56;2.89;85.98
65858;SHT31;53776;47.242;18.674;2022-11-20T03:24:21;2.91;85.63
65858;SHT31;53776;47.242;18.674;2022-11-20T03:26:47;2.88;85.14
65858;SHT31;53776;47.242;18.674;2022-11-20T03:29:12;2.95;84.69
65858;SHT31;53776;47.242;18.674;2022-11-20T03:31:39;2.94;84.33
65858;SHT31;53776;47.242;18.674;2022-11-20T03:34:09;2.88;84.27
65858;SHT31;53776;47.242;18.674;2022-11-20T03:36:40;2.87;84.35
65858;SHT31;53776;47.242;18.674;2022-11-20T03:39:06;2.96;84.38
65858;SHT31;53776;47.242;18.674;2022-11-20T03:41:36;2.96;84.51
65858;SHT31;53776;47.242;18.674;2022-11-20T03:44:04;2.98;84.39
65858;SHT31;53776;47.242;18.674;2022-11-20T03:46:30;2.98;84.28
65858;SHT31;53776;47.242;18.674;2022-11-20T03:48:56;2.95;84.30
65858;SHT31;53776;47.242;18.674;2022-11-20T03:51:23;2.89;83.93
65858;SHT31;53776;47.242;18.674;2022-11-20T03:53:51;2.88;83.79
65858;SHT31;53776;47.242;18.674;2022-11-20T03:56:20;2.80;83.73
65858;SHT31;53776;47.242;18.674;2022-11-20T03:58:47;2.78;84.23
65858;SHT31;53776;47.242;18.674;2022-11-20T04:01:15;2.78;84.53
65858;SHT31;53776;47.242;18.674;2022-11-20T04:03:42;2.77;84.92
65858;SHT31;53776;47.242;18.674;2022-11-20T04:06:14;2.77;85.00
65858;SHT31;53776;47.242;18.674;2022-11-20T04:08:40;2.77;85.33
65858;SHT31;53776;47.242;18.674;2022-11-20T04:11:12;2.73;85.37
65858;SHT31;53776;47.242;18.674;2022-11-20T04:13:39;2.74;85.72
65858;SHT31;53776;47.242;18.674;2022-11-20T04:16:09;2.78;85.66
65858;SHT31;53776;47.242;18.674;2022-11-20T04:18:35;2.73;85.48
65858;SHT31;53776;47.242;18.674;2022-11-20T04:21:01;2.70;85.41
65858;SHT31;53776;47.242;18.674;2022-11-20T04:23:27;2.70;85.62
65858;SHT31;53776;47.242;18.674;2022-11-20T04:25:53;2.64;85.75
65858;SHT31;53776;47.242;18.674;2022-11-20T04:28:18;2.58;86.14
65858;SHT31;53776;47.242;18.674;2022-11-20T04:30:44;2.60;86.11
65858;SHT31;53776;47.242;18.674;2022-11-20T04:33:09;2.60;86.23
65858;SHT31;53776;47.242;18.674;2022-11-20T04:35:36;2.58;86.43
65858;SHT31;53776;47.242;18.674;2022-11-20T04:38:02;2.61;86.42
65858;SHT31;53776;47.242;18.674;2022-11-20T04:40:28;2.60;86.72
65858;SHT31;53776;47.242;18.674;2022-11-20T04:42:54;2.65;86.80
65858;SHT31;53776;47.242;18.674;2022-11-20T04:45:20;2.65;86.53
65858;SHT31;53776;47.242;18.674;2022-11-20T04:47:46;2.65;86.52
65858;SHT31;53776;47.242;18.674;2022-11-20T04:50:11;2.73;86.64
65858;SHT31;53776;47.242;18.674;2022-11-20T04:52:37;2.68;86.86
65858;SHT31;53776;47.242;18.674;2022-11-20T04:55:04;2.68;87.04
65858;SHT31;53776;47.242;18.674;2022-11-20T04:57:29;2.70;87.08
65858;SHT31;53776;47.242;18.674;2022-11-20T04:59:55;2.70;87.14
65858;SHT31;53776;47.242;18.674;2022-11-20T05:02:20;2.71;87.17
65858;SHT31;53776;47.242;18.674;2022-11-20T05:04:46;2.73;87.17
65858;SHT31;53776;47.242;18.674;2022-11-20T05:07:11;2.71;87.31
65858;SHT31;53776;47.242;18.674;2022-11-20T05:09:37;2.73;87.45
65858;SHT31;53776;47.242;18.674;2022-11-20T05:12:03;2.75;87.55
65858;SHT31;53776;47.242;18.674;2022-11-20T05:14:28;2.77;87.45
65858;SHT31;53776;47.242;18.674;2022-11-20T05:16:54;2.81;87.36
65858;SHT31;53776;47.242;18.674;2022-11-20T05:19:19;2.78;87.17
65858;SHT31;53776;47.242;18.674;2022-11-20T05:21:44;2.83;87.02
65858;SHT31;53776;47.242;18.674;2022-11-20T05:24:10;2.78;86.79
65858;SHT31;53776;47.242;18.674;2022-11-20T05:26:35;2.84;86.76
65858;SHT31;53776;47.242;18.674;2022-11-20T05:29:01;2.75;87.11
65858;SHT31;53776;47.242;18.674;2022-11-20T05:31:27;2.75;87.13
65858;SHT31;53776;47.242;18.674;2022-11-20T05:33:52;2.73;86.78
65858;SHT31;53776;47.242;18.674;2022-11-20T05:36:18;2.70;86.93
65858;SHT31;53776;47.242;18.674;2022-11-20T05:38:44;2.77;86.70
65858;SHT31;53776;47.242;18.674;2022-11-20T05:41:11;2.74;86.99
65858;SHT31;53776;47.242;18.674;2022-11-20T05:43:39;2.74;86.88
65858;SHT31;53776;47.242;18.674;2022-11-20T05:46:06;2.74;87.31
65858;SHT31;53776;47.242;18.674;2022-11-20T05:48:32;2.74;87.44
65858;SHT31;53776;47.242;18.674;2022-11-20T05:51:02;2.81;87.20
65858;SHT31;53776;47.242;18.674;2022-11-20T05:53:28;2.78;86.92
65858;SHT31;53776;47.242;18.674;2022-11-20T05:56:02;2.77;86.80
65858;SHT31;53776;47.242;18.674;2022-11-20T05:58:28;2.73;87.02
65858;SHT31;53776;47.242;18.674;2022-11-20T06:00:53;2.74;86.81
65858;SHT31;53776;47.242;18.674;2022-11-20T06:03:19;2.73;86.71
65858;SHT31;53776;47.242;18.674;2022-11-20T06:05:44;2.74;86.00
65858;SHT31;53776;47.242;18.674;2022-11-20T06:08:10;2.78;86.18
65858;SHT31;53776;47.242;18.674;2022-11-20T06:10:35;2.81;86.38
65858;SHT31;53776;47.242;18.674;2022-11-20T06:13:01;2.83;86.54
65858;SHT31;53776;47.242;18.674;2022-11-20T06:15:26;2.83;86.77
65858;SHT31;53776;47.242;18.674;2022-11-20T06:17:52;2.87;86.68
65858;SHT31;53776;47.242;18.674;2022-11-20T06:20:19;2.83;86.78
65858;SHT31;53776;47.242;18.674;2022-11-20T06:22:44;2.88;86.90
65858;SHT31;53776;47.242;18.674;2022-11-20T06:25:09;2.92;86.95
65858;SHT31;53776;47.242;18.674;2022-11-20T06:27:35;2.98;86.76
65858;SHT31;53776;47.242;18.674;2022-11-20T06:30:00;2.98;86.93
65858;SHT31;53776;47.242;18.674;2022-11-20T06:32:26;3.05;86.93
65858;SHT31;53776;47.242;18.674;2022-11-20T06:34:51;3.09;86.91
65858;SHT31;53776;47.242;18.674;2022-11-20T06:37:17;3.15;86.66
65858;SHT31;53776;47.242;18.674;2022-11-20T06:39:42;3.15;86.26
65858;SHT31;53776;47.242;18.674;2022-11-20T06:42:07;3.16;86.55
65858;SHT31;53776;47.242;18.674;2022-11-20T06:44:33;3.20;86.82
65858;SHT31;53776;47.242;18.674;2022-11-20T06:46:58;3.26;86.96
65858;SHT31;53776;47.242;18.674;2022-11-20T06:49:24;3.32;86.82
65858;SHT31;53776;47.242;18.674;2022-11-20T06:51:50;3.39;86.58
65858;SHT31;53776;47.242;18.674;2022-11-20T06:54:15;3.42;86.30
65858;SHT31;53776;47.242;18.674;2022-11-20T06:56:41;3.44;85.94
65858;SHT31;53776;47.242;18.674;2022-11-20T06:59:07;3.47;85.92
65858;SHT31;53776;47.242;18.674;2022-11-20T07:01:33;3.53;85.35
65858;SHT31;53776;47.242;18.674;2022-11-20T07:03:58;3.52;85.44
65858;SHT31;53776;47.242;18.674;2022-11-20T07:06:24;3.50;85.21
65858;SHT31;53776;47.242;18.674;2022-11-20T07:08:52;3.47;85.94
65858;SHT31;53776;47.242;18.674;2022-11-20T07:11:17;3.50;86.47
65858;SHT31;53776;47.242;18.674;2022-11-20T07:13:43;3.66;86.59
65858;SHT31;53776;47.242;18.674;2022-11-20T07:16:08;3.70;86.12
65858;SHT31;53776;47.242;18.674;2022-11-20T07:18:34;3.71;85.29
65858;SHT31;53776;47.242;18.674;2022-11-20T07:21:02;3.67;85.12
65858;SHT31;53776;47.242;18.674;2022-11-20T07:23:28;3.62;85.32
65858;SHT31;53776;47.242;18.674;2022-11-20T07:25:53;3.63;85.73
65858;SHT31;53776;47.242;18.674;2022-11-20T07:28:19;3.66;85.76
65858;SHT31;53776;47.242;18.674;2022-11-20T07:30:50;3.71;85.60
65858;SHT31;53776;47.242;18.674;2022-11-20T07:33:15;3.75;85.62
65858;SHT31;53776;47.242;18.674;2022-11-20T07:35:41;3.74;85.78
65858;SHT31;53776;47.242;18.674;2022-11-20T07:38:06;3.81;85.44
65858;SHT31;53776;47.242;18.674;2022-11-20T07:40:31;3.84;85.22
65858;SHT31;53776;47.242;18.674;2022-11-20T07:42:57;3.90;85.11
65858;SHT31;53776;47.242;18.674;2022-11-20T07:45:23;3.92;85.70
65858;SHT31;53776;47.242;18.674;2022-11-20T07:47:49;3.98;85.74
65858;SHT31;53776;47.242;18.674;2022-11-20T07:50:15;4.18;85.58
65858;SHT31;53776;47.242;18.674;2022-11-20T07:52:41;4.32;85.82
65858;SHT31;53776;47.242;18.674;2022-11-20T07:55:07;4.39;85.39
65858;SHT31;53776;47.242;18.674;2022-11-20T07:57:33;4.43;85.54
65858;SHT31;53776;47.242;18.674;2022-11-20T07:59:58;4.41;86.21
65858;SHT31;53776;47.242;18.674;2022-11-20T08:02:24;4.62;85.96
65858;SHT31;53776;47.242;18.674;2022-11-20T08:04:49;4.69;85.86
65858;SHT31;53776;47.242;18.674;2022-11-20T08:07:15;4.76;85.16
65858;SHT31;53776;47.242;18.674;2022-11-20T08:09:40;4.77;84.98
65858;SHT31;53776;47.242;18.674;2022-11-20T08:12:05;4.88;85.53
65858;SHT31;53776;47.242;18.674;2022-11-20T08:14:49;4.91;85.86
65858;SHT31;53776;47.242;18.674;2022-11-20T08:17:15;5.05;85.52
65858;SHT31;53776;47.242;18.674;2022-11-20T08:19:40;5.18;85.06
65858;SHT31;53776;47.242;18.674;2022-11-20T08:22:05;5.27;84.32
65858;SHT31;53776;47.242;18.674;2022-11-20T08:24:31;5.46;85.09
65858;SHT31;53776;47.242;18.674;2022-11-20T08:26:59;5.67;85.41
65858;SHT31;53776;47.242;18.674;2022-11-20T08:29:28;5.73;83.83
65858;SHT31;53776;47.242;18.674;2022-11-20T08:31:53;5.65;83.32
65858;SHT31;53776;47.242;18.674;2022-11-20T08:34:19;5.53;82.49
65858;SHT31;53776;47.242;18.674;2022-11-20T08:36:44;5.50;83.66
65858;SHT31;53776;47.242;18.674;2022-11-20T08:39:13;5.48;83.46
65858;SHT31;53776;47.242;18.674;2022-11-20T08:41:39;5.40;83.41
65858;SHT31;53776;47.242;18.674;2022-11-20T08:44:06;5.31;83.84
65858;SHT31;53776;47.242;18.674;2022-11-20T08:46:40;5.32;84.79
65858;SHT31;53776;47.242;18.674;2022-11-20T08:49:13;5.32;83.32
65858;SHT31;53776;47.242;18.674;2022-11-20T08:51:39;5.27;83.86
65858;SHT31;53776;47.242;18.674;2022-11-20T08:54:05;5.29;83.76
65858;SHT31;53776;47.242;18.674;2022-11-20T08:56:31;5.35;83.66
65858;SHT31;53776;47.242;18.674;2022-11-20T08:58:58;5.42;83.82
65858;SHT31;53776;47.242;18.674;2022-11-20T09:01:25;5.43;84.04
65858;SHT31;53776;47.242;18.674;2022-11-20T09:03:50;5.45;84.58
65858;SHT31;53776;47.242;18.674;2022-11-20T09:06:16;5.48;85.16
65858;SHT31;53776;47.242;18.674;2022-11-20T09:08:42;5.46;85.16
65858;SHT31;53776;47.242;18.674;2022-11-20T09:11:08;5.49;85.10
65858;SHT31;53776;47.242;18.674;2022-11-20T09:13:34;5.52;84.65
65858;SHT31;53776;47.242;18.674;2022-11-20T09:16:03;5.55;84.59
65858;SHT31;53776;47.242;18.674;2022-11-20T09:18:29;5.55;84.72
65858;SHT31;53776;47.242;18.674;2022-11-20T09:21:00;5.52;84.24
65858;SHT31;53776;47.242;18.674;2022-11-20T09:23:27;5.52;84.56
65858;SHT31;53776;47.242;18.674;2022-11-20T09:25:55;5.43;84.63
65858;SHT31;53776;47.242;18.674;2022-11-20T09:28:25;5.46;84.29
65858;SHT31;53776;47.242;18.674;2022-11-20T09:30:50;5.42;84.85
65858;SHT31;53776;47.242;18.674;2022-11-20T09:33:16;5.48;85.12
65858;SHT31;53776;47.242;18.674;2022-11-20T09:35:42;5.53;84.65
65858;SHT31;53776;47.242;18.674;2022-11-20T09:38:09;5.58;85.40
65858;SHT31;53776;47.242;18.674;2022-11-20T09:40:38;5.63;84.38
65858;SHT31;53776;47.242;18.674;2022-11-20T09:56:09;5.58;85.21
65858;SHT31;53776;47.242;18.674;2022-11-20T09:58:40;5.66;85.03
65858;SHT31;53776;47.242;18.674;2022-11-20T10:01:18;5.71;85.53
65858;SHT31;53776;47.242;18.674;2022-11-20T10:04:03;5.79;85.76
65858;SHT31;53776;47.242;18.674;2022-11-20T10:06:32;5.77;86.43
65858;SHT31;53776;47.242;18.674;2022-11-20T10:09:00;5.74;85.17
65858;SHT31;53776;47.242;18.674;2022-11-20T10:11:46;5.66;83.05
65858;SHT31;53776;47.242;18.674;2022-11-20T10:19:52;5.71;84.37
65858;SHT31;53776;47.242;18.674;2022-11-20T10:25:22;5.91;84.38
65858;SHT31;53776;47.242;18.674;2022-11-20T10:30:24;6.16;84.61
65858;SHT31;53776;47.242;18.674;2022-11-20T10:35:44;6.25;83.64
65858;SHT31;53776;47.242;18.674;2022-11-20T10:38:19;6.24;83.26
65858;SHT31;53776;47.242;18.674;2022-11-20T10:40:49;6.27;84.40
65858;SHT31;53776;47.242;18.674;2022-11-20T10:43:17;6.39;84.03
65858;SHT31;53776;47.242;18.674;2022-11-20T10:51:10;6.61;83.45
65858;SHT31;53776;47.242;18.674;2022-11-20T10:54:17;6.68;83.74
65858;SHT31;53776;47.242;18.674;2022-11-20T10:56:47;6.77;84.49
65858;SHT31;53776;47.242;18.674;2022-11-20T10:59:41;6.95;82.44
65858;SHT31;53776;47.242;18.674;2022-11-20T11:02:22;7.10;81.77
65858;SHT31;53776;47.242;18.674;2022-11-20T11:04:54;7.23;81.51
65858;SHT31;53776;47.242;18.674;2022-11-20T11:07:27;7.27;82.31
65858;SHT31;53776;47.242;18.674;2022-11-20T11:09:56;7.38;82.27
65858;SHT31;53776;47.242;18.674;2022-11-20T11:12:24;7.38;81.84
65858;SHT31;53776;47.242;18.674;2022-11-20T11:14:50;7.37;82.67
65858;SHT31;53776;47.242;18.674;2022-11-20T11:17:32;7.32;83.36
65858;SHT31;53776;47.242;18.674;2022-11-20T11:20:04;7.37;84.03
65858;SHT31;53776;47.242;18.674;2022-11-20T11:22:31;7.41;83.28
65858;SHT31;53776;47.242;18.674;2022-11-20T11:24:58;7.52;83.05
65858;SHT31;53776;47.242;18.674;2022-11-20T11:27:23;7.52;83.14
65858;SHT31;53776;47.242;18.674;2022-11-20T11:29:48;7.68;82.15
65858;SHT31;53776;47.242;18.674;2022-11-20T11:32:19;7.73;81.59
65858;SHT31;53776;47.242;18.674;2022-11-20T11:35:02;7.68;82.37
65858;SHT31;53776;47.242;18.674;2022-11-20T11:37:34;7.75;82.42
65858;SHT31;53776;47.242;18.674;2022-11-20T11:40:01;7.83;82.30
65858;SHT31;53776;47.242;18.674;2022-11-20T11:42:28;7.92;82.36
65858;SHT31;53776;47.242;18.674;2022-11-20T11:44:55;8.00;81.84
65858;SHT31;53776;47.242;18.674;2022-11-20T11:47:52;8.09;81.06
65858;SHT31;53776;47.242;18.674;2022-11-20T11:55:43;7.82;80.46
65858;SHT31;53776;47.242;18.674;2022-11-20T12:00:49;7.71;81.89
65858;SHT31;53776;47.242;18.674;2022-11-20T12:03:22;7.76;81.38
65858;SHT31;53776;47.242;18.674;2022-11-20T12:05:57;7.72;81.29
65858;SHT31;53776;47.242;18.674;2022-11-20T12:08:48;7.62;81.87
65858;SHT31;53776;47.242;18.674;2022-11-20T12:11:54;7.55;81.71
65858;SHT31;53776;47.242;18.674;2022-11-20T12:14:41;7.47;80.77
65858;SHT31;53776;47.242;18.674;2022-11-20T12:17:12;7.45;82.48
65858;SHT31;53776;47.242;18.674;2022-11-20T12:19:38;7.48;82.18
65858;SHT31;53776;47.242;18.674;2022-11-20T12:30:08;7.50;81.95
65858;SHT31;53776;47.242;18.674;2022-11-20T12:35:42;7.59;81.18
65858;SHT31;53776;47.242;18.674;2022-11-20T12:41:25;7.73;80.63
65858;SHT31;53776;47.242;18.674;2022-11-20T12:47:32;7.71;81.29
65858;SHT31;53776;47.242;18.674;2022-11-20T12:55:47;7.50;81.39
65858;SHT31;53776;47.242;18.674;2022-11-20T12:58:27;7.48;82.00
65858;SHT31;53776;47.242;18.674;2022-11-20T13:03:48;7.30;80.90
65858;SHT31;53776;47.242;18.674;2022-11-20T13:06:18;7.28;81.22
65858;SHT31;53776;47.242;18.674;2022-11-20T13:08:52;7.32;81.22
65858;SHT31;53776;47.242;18.674;2022-11-20T13:14:39;7.23;81.47
65858;SHT31;53776;47.242;18.674;2022-11-20T13:19:54;7.16;81.78
65858;SHT31;53776;47.242;18.674;2022-11-20T13:22:28;7.23;82.09
65858;SHT31;53776;47.242;18.674;2022-11-20T13:24:54;7.21;82.41
65858;SHT31;53776;47.242;18.674;2022-11-20T13:27:22;7.17;81.27
65858;SHT31;53776;47.242;18.674;2022-11-20T13:30:14;7.14;81.26
65858;SHT31;53776;47.242;18.674;2022-11-20T13:33:09;7.13;82.02
65858;SHT31;53776;47.242;18.674;2022-11-20T13:35:55;7.16;82.11
65858;SHT31;53776;47.242;18.674;2022-11-20T13:38:21;7.16;83.06
65858;SHT31;53776;47.242;18.674;2022-11-20T13:40:52;7.16;82.95
65858;SHT31;53776;47.242;18.674;2022-11-20T13:46:03;7.13;82.09
65858;SHT31;53776;47.242;18.674;2022-11-20T13:48:32;7.13;82.33
65858;SHT31;53776;47.242;18.674;2022-11-20T13:59:49;6.90;82.97
65858;SHT31;53776;47.242;18.674;2022-11-20T14:02:18;6.85;83.55
65858;SHT31;53776;47.242;18.674;2022-11-20T14:04:50;6.82;84.11
65858;SHT31;53776;47.242;18.674;2022-11-20T14:07:18;6.82;84.01
65858;SHT31;53776;47.242;18.674;2022-11-20T14:09:53;6.79;84.20
65858;SHT31;53776;47.242;18.674;2022-11-20T14:12:22;6.75;84.48
65858;SHT31;53776;47.242;18.674;2022-11-20T14:14:50;6.80;84.30
65858;SHT31;53776;47.242;18.674;2022-11-20T14:17:29;6.79;84.44
65858;SHT31;53776;47.242;18.674;2022-11-20T14:19:59;6.82;84.45
65858;SHT31;53776;47.242;18.674;2022-11-20T14:22:27;6.75;83.17
65858;SHT31;53776;47.242;18.674;2022-11-20T14:27:39;6.65;83.99
65858;SHT31;53776;47.242;18.674;2022-11-20T14:30:05;6.58;84.43
65858;SHT31;53776;47.242;18.674;2022-11-20T14:32:31;6.64;84.60
65858;SHT31;53776;47.242;18.674;2022-11-20T14:35:03;6.62;84.88
65858;SHT31;53776;47.242;18.674;2022-11-20T14:37:37;6.59;85.07
65858;SHT31;53776;47.242;18.674;2022-11-20T14:40:20;6.58;85.09
65858;SHT31;53776;47.242;18.674;2022-11-20T14:42:46;6.52;85.22
65858;SHT31;53776;47.242;18.674;2022-11-20T14:45:12;6.48;85.20
65858;SHT31;53776;47.242;18.674;2022-11-20T14:47:38;6.45;85.24
65858;SHT31;53776;47.242;18.674;2022-11-20T14:50:16;6.31;85.48
65858;SHT31;53776;47.242;18.674;2022-11-20T14:52:59;6.21;85.64
65858;SHT31;53776;47.242;18.674;2022-11-20T14:55:36;6.13;85.88
65858;SHT31;53776;47.242;18.674;2022-11-20T14:58:04;6.07;85.93
65858;SHT31;53776;47.242;18.674;2022-11-20T15:00:32;5.97;86.09
65858;SHT31;53776;47.242;18.674;2022-11-20T15:02:57;5.90;86.17
65858;SHT31;53776;47.242;18.674;2022-11-20T15:05:48;5.79;86.42
65858;SHT31;53776;47.242;18.674;2022-11-20T15:08:14;5.69;86.49
65858;SHT31;53776;47.242;18.674;2022-11-20T15:10:49;5.58;86.62
65858;SHT31;53776;47.242;18.674;2022-11-20T15:13:26;5.49;86.75
65858;SHT31;53776;47.242;18.674;2022-11-20T15:15:55;5.42;86.88
65858;SHT31;53776;47.242;18.674;2022-11-20T15:18:23;5.32;86.84
65858;SHT31;53776;47.242;18.674;2022-11-20T15:20:51;5.22;87.02
65858;SHT31;53776;47.242;18.674;2022-11-20T15:23:18;5.08;87.05
65858;SHT31;53776;47.242;18.674;2022-11-20T15:25:44;4.98;87.26
65858;SHT31;53776;47.242;18.674;2022-11-20T15:28:21;4.88;87.56
65858;SHT31;53776;47.242;18.674;2022-11-20T15:30:49;4.79;87.60
65858;SHT31;53776;47.242;18.674;2022-11-20T15:33:15;4.74;87.61
65858;SHT31;53776;47.242;18.674;2022-11-20T15:35:41;4.60;87.73
65858;SHT31;53776;47.242;18.674;2022-11-20T15:38:06;4.43;87.95
65858;SHT31;53776;47.242;18.674;2022-11-20T15:40:32;4.39;88.08
65858;SHT31;53776;47.242;18.674;2022-11-20T15:42:57;4.29;88.36
65858;SHT31;53776;47.242;18.674;2022-11-20T15:45:33;4.29;88.55
65858;SHT31;53776;47.242;18.674;2022-11-20T15:48:00;4.21;88.67
65858;SHT31;53776;47.242;18.674;2022-11-20T15:50:31;4.11;88.58
65858;SHT31;53776;47.242;18.674;2022-11-20T15:52:58;3.94;88.47
65858;SHT31;53776;47.242;18.674;2022-11-20T15:55:24;3.83;88.54
65858;SHT31;53776;47.242;18.674;2022-11-20T15:57:49;3.77;88.61
65858;SHT31;53776;47.242;18.674;2022-11-20T16:00:15;3.64;88.68
65858;SHT31;53776;47.242;18.674;2022-11-20T16:02:40;3.59;88.81
65858;SHT31;53776;47.242;18.674;2022-11-20T16:05:11;3.52;88.81
65858;SHT31;53776;47.242;18.674;2022-11-20T16:07:37;3.49;89.13
65858;SHT31;53776;47.242;18.674;2022-11-20T16:10:03;3.50;89.26
65858;SHT31;53776;47.242;18.674;2022-11-20T16:12:29;3.52;89.33
65858;SHT31;53776;47.242;18.674;2022-11-20T16:15:13;3.50;89.42
65858;SHT31;53776;47.242;18.674;2022-11-20T16:17:57;3.53;89.45
65858;SHT31;53776;47.242;18.674;2022-11-20T16:20:22;3.52;89.42
65858;SHT31;53776;47.242;18.674;2022-11-20T16:22:48;3.56;89.65
65858;SHT31;53776;47.242;18.674;2022-11-20T16:25:13;3.67;89.98
65858;SHT31;53776;47.242;18.674;2022-11-20T16:27:39;3.74;89.98
65858;SHT31;53776;47.242;18.674;2022-11-20T16:30:04;3.70;89.88
65858;SHT31;53776;47.242;18.674;2022-11-20T16:32:30;3.70;90.00
65858;SHT31;53776;47.242;18.674;2022-11-20T16:34:56;3.71;89.84
65858;SHT31;53776;47.242;18.674;2022-11-20T16:37:21;3.59;89.80
65858;SHT31;53776;47.242;18.674;2022-11-20T16:39:47;3.52;89.84
65858;SHT31;53776;47.242;18.674;2022-11-20T16:42:12;3.42;89.81
65858;SHT31;53776;47.242;18.674;2022-11-20T16:44:38;3.33;89.78
65858;SHT31;53776;47.242;18.674;2022-11-20T16:47:03;3.26;89.80
65858;SHT31;53776;47.242;18.674;2022-11-20T16:49:29;3.20;89.72
65858;SHT31;53776;47.242;18.674;2022-11-20T16:51:54;3.18;89.66
65858;SHT31;53776;47.242;18.674;2022-11-20T16:54:19;3.13;89.60
65858;SHT31;53776;47.242;18.674;2022-11-20T16:56:45;3.01;89.59
65858;SHT31;53776;47.242;18.674;2022-11-20T16:59:12;2.89;89.62
65858;SHT31;53776;47.242;18.674;2022-11-20T17:01:38;2.83;89.57
65858;SHT31;53776;47.242;18.674;2022-11-20T17:04:05;2.71;89.56
65858;SHT31;53776;47.242;18.674;2022-11-20T17:06:33;2.60;89.59
65858;SHT31;53776;47.242;18.674;2022-11-20T17:08:59;2.50;89.65
65858;SHT31;53776;47.242;18.674;2022-11-20T17:11:26;2.43;89.64
65858;SHT31;53776;47.242;18.674;2022-11-20T17:13:53;2.41;89.87
65858;SHT31;53776;47.242;18.674;2022-11-20T17:16:21;2.44;90.18